Time;durP1;ratioP1;P1;durP2;ratioP2;P2;SDS_P1;SDS_P2;PMS_P1;PMS_P2;Temp;Humidity;BMP_temperature;BMP_pressure;BME280_temperature;BME280_humidity;BME280_pressure;Samples;Min_cycle;Max_cycle;Signal;HPM_P1;HPM_P2
2022/05/28 00:00:36;;;;;;;;;;;;;;;15.31;50.78;100251.31;1088307;54;19976;-80
2022/05/28 00:01:40;;;;;;;;;;;;;;;15.32;51.20;100245.72;1088309;54;19946;-80
2022/05/28 00:02:41;;;;;;;;;;;;;;;15.35;50.88;100249.97;1088350;54;19968;-79
2022/05/28 00:03:46;;;;;;;;;;;;;;;15.33;50.74;100254.66;1088333;47;19949;-80
2022/05/28 00:04:47;;;;;;;;;;;;;;;15.34;51.03;100246.41;1088222;54;20308;-79
2022/05/28 00:05:51;;;;;;;;;;;;;;;15.22;50.41;100245.06;1088242;54;19926;-80
2022/05/28 00:06:57;;;;;;;;;;;;;;;15.20;50.72;100249.81;1090698;39;20513;-81
2022/05/28 00:07:58;;;;;;;;;;;;;;;15.17;50.85;100255.53;1088224;54;19930;-78
2022/05/28 00:09:02;;;;;;;;;;;;;;;15.12;50.90;100247.97;1090278;46;19939;-80
2022/05/28 00:10:04;;;;;;;;;;;;;;;15.13;50.99;100246.94;1088220;54;19943;-79
2022/05/28 00:11:13;;;;;;;;;;;;;;;15.11;51.15;100244.41;1088204;54;19990;-79
2022/05/28 00:12:14;;;;;;;;;;;;;;;15.13;51.20;100242.41;1089545;46;19967;-79
2022/05/28 00:13:18;;;;;;;;;;;;;;;15.15;50.94;100250.31;1088198;54;19949;-79
2022/05/28 00:14:19;;;;;;;;;;;;;;;15.18;51.25;100249.13;1087878;54;19942;-79
2022/05/28 00:15:23;;;;;;;;;;;;;;;15.14;51.20;100245.94;1087801;54;19967;-78
2022/05/28 00:16:25;;;;;;;;;;;;;;;15.02;50.09;100250.81;1087841;54;19930;-80
2022/05/28 00:17:28;;;;;;;;;;;;;;;15.00;50.26;100255.53;1089912;46;19996;-81
2022/05/28 00:18:31;;;;;;;;;;;;;;;15.02;50.58;100247.28;1087823;54;19964;-79
2022/05/28 00:19:35;;;;;;;;;;;;;;;15.01;50.16;100249.16;1087876;54;19950;-79
2022/05/28 00:20:39;;;;;;;;;;;;;;;14.95;50.41;100247.13;1087796;54;19950;-80
2022/05/28 00:21:40;;;;;;;;;;;;;;;14.96;50.34;100251.50;1087831;54;19954;-79
2022/05/28 00:22:47;;;;;;;;;;;;;;;14.93;49.98;100251.81;1091152;39;20177;-78
2022/05/28 00:23:48;;;;;;;;;;;;;;;14.83;50.06;100252.00;1087823;54;19942;-79
2022/05/28 00:24:52;;;;;;;;;;;;;;;14.72;50.00;100250.50;1087855;54;19943;-79
2022/05/28 00:25:53;;;;;;;;;;;;;;;14.68;50.08;100246.44;1087834;47;19939;-79
2022/05/28 00:26:57;;;;;;;;;;;;;;;14.69;50.25;100250.81;1087704;54;19990;-79
2022/05/28 00:28:01;;;;;;;;;;;;;;;14.69;50.44;100250.81;1088081;54;19949;-80
2022/05/28 00:29:02;;;;;;;;;;;;;;;14.69;50.47;100258.06;1088119;54;20003;-80
2022/05/28 00:30:06;;;;;;;;;;;;;;;14.64;50.18;100256.66;1088127;54;19930;-79
2022/05/28 00:31:08;;;;;;;;;;;;;;;14.67;50.32;100255.53;1089279;46;19963;-79
2022/05/28 00:32:12;;;;;;;;;;;;;;;14.64;50.26;100253.16;1088103;54;19938;-79
2022/05/28 00:33:13;;;;;;;;;;;;;;;14.67;50.66;100255.53;1088094;54;19963;-78
2022/05/28 00:34:16;;;;;;;;;;;;;;;14.60;50.53;100260.69;1088085;54;19947;-80
2022/05/28 00:35:18;;;;;;;;;;;;;;;14.50;49.99;100247.41;1088125;54;19963;-79
2022/05/28 00:36:22;;;;;;;;;;;;;;;14.47;50.13;100253.09;1088066;54;19942;-79
2022/05/28 00:37:24;;;;;;;;;;;;;;;14.49;50.52;100255.66;1089487;46;20535;-79
2022/05/28 00:38:30;;;;;;;;;;;;;;;14.44;50.04;100258.84;1089834;46;19942;-79
2022/05/28 00:39:31;;;;;;;;;;;;;;;14.45;50.51;100247.03;1088072;54;19967;-78
2022/05/28 00:40:35;;;;;;;;;;;;;;;14.42;50.45;100255.47;1088095;54;19965;-78
2022/05/28 00:41:36;;;;;;;;;;;;;;;14.42;50.33;100255.47;1088091;54;19943;-79
2022/05/28 00:42:40;;;;;;;;;;;;;;;14.40;50.49;100262.00;1087945;54;19975;-80
2022/05/28 00:43:43;;;;;;;;;;;;;;;14.38;50.37;100258.63;1087690;54;19949;-78
2022/05/28 00:44:47;;;;;;;;;;;;;;;14.36;50.21;100264.16;1088035;54;19939;-79
2022/05/28 00:45:50;;;;;;;;;;;;;;;14.31;50.37;100261.97;1089084;46;19945;-80
2022/05/28 00:46:56;;;;;;;;;;;;;;;14.26;50.59;100255.44;1087952;54;19935;-78
2022/05/28 00:47:59;;;;;;;;;;;;;;;14.21;50.60;100253.22;1088076;54;19939;-79
2022/05/28 00:49:05;;;;;;;;;;;;;;;14.25;50.91;100256.44;1088058;54;19939;-78
2022/05/28 00:50:07;;;;;;;;;;;;;;;14.28;50.61;100262.31;1088087;54;19967;-83
2022/05/28 00:51:12;;;;;;;;;;;;;;;14.29;50.63;100260.44;1088106;54;19923;-80
2022/05/28 00:52:16;;;;;;;;;;;;;;;14.29;50.84;100263.16;1089645;46;19949;-80
2022/05/28 00:53:18;;;;;;;;;;;;;;;14.33;51.05;100261.81;1088116;54;19947;-79
2022/05/28 00:54:24;;;;;;;;;;;;;;;14.35;50.76;100255.28;1088295;46;19938;-79
2022/05/28 00:55:25;;;;;;;;;;;;;;;14.38;50.67;100264.84;1088032;54;19938;-79
2022/05/28 00:56:29;;;;;;;;;;;;;;;14.39;51.04;100263.84;1087947;54;19943;-78
2022/05/28 00:57:33;;;;;;;;;;;;;;;14.40;50.71;100260.16;1089635;46;19939;-78
2022/05/28 00:58:34;;;;;;;;;;;;;;;14.41;50.78;100258.28;1087970;54;19942;-80
2022/05/28 00:59:38;;;;;;;;;;;;;;;14.43;50.65;100267.03;1089389;46;19939;-78
2022/05/28 01:00:40;;;;;;;;;;;;;;;14.42;50.72;100271.59;1088948;46;19963;-79
2022/05/28 01:01:44;;;;;;;;;;;;;;;14.42;51.13;100265.34;1089239;46;19983;-78
2022/05/28 01:02:48;;;;;;;;;;;;;;;14.44;50.92;100271.41;1087976;54;19942;-78
2022/05/28 01:03:59;;;;;;;;;;;;;;;14.41;51.33;100272.59;1088027;54;19930;-79
2022/05/28 01:05:03;;;;;;;;;;;;;;;14.40;51.18;100273.59;1087897;54;19963;-79
2022/05/28 01:06:09;;;;;;;;;;;;;;;14.39;51.11;100277.28;1087913;54;19949;-79
2022/05/28 01:07:16;;;;;;;;;;;;;;;14.38;50.97;100275.59;1088000;54;19949;-79
2022/05/28 01:08:23;;;;;;;;;;;;;;;14.40;51.05;100281.66;1088055;54;20018;-80
2022/05/28 01:09:31;;;;;;;;;;;;;;;14.40;51.13;100275.47;1090708;46;19946;-79
2022/05/28 01:10:41;;;;;;;;;;;;;;;14.39;50.93;100274.59;1088078;54;20699;-79
2022/05/28 01:11:45;;;;;;;;;;;;;;;14.39;50.72;100276.47;1088375;47;19951;-80
2022/05/28 01:12:52;;;;;;;;;;;;;;;14.40;50.85;100276.28;1088039;54;19998;-79
2022/05/28 01:13:58;;;;;;;;;;;;;;;14.41;50.94;100271.75;1088116;54;19942;-79
2022/05/28 01:15:05;;;;;;;;;;;;;;;14.39;50.66;100271.91;1088033;54;19939;-79
2022/05/28 01:16:08;;;;;;;;;;;;;;;14.37;51.16;100271.22;1089072;46;19939;-79
2022/05/28 01:17:14;;;;;;;;;;;;;;;14.40;51.13;100260.16;1087754;54;19943;-80
2022/05/28 01:18:21;;;;;;;;;;;;;;;14.35;50.71;100257.13;1088111;54;19938;-79
2022/05/28 01:19:35;;;;;;;;;;;;;;;14.30;50.44;100262.13;1087995;54;19934;-79
2022/05/28 01:20:41;;;;;;;;;;;;;;;14.28;51.10;100262.31;1088067;54;19994;-78
2022/05/28 01:21:47;;;;;;;;;;;;;;;14.26;50.77;100264.31;1087939;54;20652;-78
2022/05/28 01:22:56;;;;;;;;;;;;;;;14.23;50.92;100271.88;1088051;54;19939;-80
2022/05/28 01:24:04;;;;;;;;;;;;;;;14.12;51.61;100273.84;1088432;47;19939;-79
2022/05/28 01:25:15;;;;;;;;;;;;;;;14.12;51.48;100271.16;1089964;46;20039;-79
2022/05/28 01:26:20;;;;;;;;;;;;;;;14.10;51.63;100278.53;1088023;54;19967;-78
2022/05/28 03:37:01;;;;;;;;;;;;;;;12.08;54.48;100275.59;1087956;39;20985;-81
2022/05/28 03:38:02;;;;;;;;;;;;;;;12.10;54.15;100279.81;1088187;54;19950;-80
2022/05/28 03:39:06;;;;;;;;;;;;;;;12.09;53.95;100278.13;1088044;54;19934;-80
2022/05/28 03:40:08;;;;;;;;;;;;;;;12.12;54.08;100279.66;1087959;54;19933;-83
2022/05/28 03:41:12;;;;;;;;;;;;;;;12.13;54.17;100281.34;1088378;54;19927;-82
2022/05/28 03:42:16;;;;;;;;;;;;;;;12.12;54.49;100283.19;1089100;46;19979;-82
2022/05/28 03:43:22;;;;;;;;;;;;;;;12.15;54.53;100279.34;1088604;54;19934;-81
2022/05/28 03:44:23;;;;;;;;;;;;;;;12.15;54.35;100288.22;1088646;54;19929;-82
2022/05/28 03:45:27;;;;;;;;;;;;;;;12.13;54.56;100292.06;1088558;54;19923;-82
2022/05/28 03:46:30;;;;;;;;;;;;;;;12.14;54.33;100288.38;1088643;54;19938;-83
2022/05/28 03:47:34;;;;;;;;;;;;;;;12.13;54.62;100292.06;1088676;54;20530;-83
2022/05/28 03:48:36;;;;;;;;;;;;;;;12.11;54.55;100291.34;1089607;46;19935;-83
2022/05/28 03:49:44;;;;;;;;;;;;;;;12.10;54.44;100289.66;1088671;54;19949;-81
2022/05/28 03:50:45;;;;;;;;;;;;;;;12.07;54.57;100296.16;1088489;54;19966;-81
2022/05/28 03:51:53;;;;;;;;;;;;;;;12.04;54.71;100291.13;1088476;54;19961;-80
2022/05/28 03:53:03;;;;;;;;;;;;;;;11.89;55.60;100292.56;1088522;54;19950;-82
2022/05/28 03:54:07;;;;;;;;;;;;;;;11.64;56.30;100301.09;1088441;54;19998;-81
2022/05/28 03:55:08;;;;;;;;;;;;;;;11.50;56.81;100298.91;1088485;54;20711;-81
2022/05/28 03:56:13;;;;;;;;;;;;;;;11.37;57.00;100300.03;1088488;54;19934;-83
2022/05/28 03:57:17;;;;;;;;;;;;;;;11.39;56.97;100295.38;1088459;54;19962;-82
2022/05/28 03:58:20;;;;;;;;;;;;;;;11.49;56.77;100297.19;1088182;54;19943;-80
2022/05/28 03:59:22;;;;;;;;;;;;;;;11.61;56.51;100305.91;1088085;54;20673;-80
2022/05/28 04:00:26;;;;;;;;;;;;;;;11.68;56.17;100304.31;1088220;54;19923;-83
2022/05/28 04:01:32;;;;;;;;;;;;;;;11.71;56.20;100306.72;1088027;54;19942;-82
2022/05/28 04:02:36;;;;;;;;;;;;;;;11.76;55.88;100306.28;1088378;54;19942;-79
2022/05/28 04:03:37;;;;;;;;;;;;;;;11.73;56.24;100303.88;1088192;54;19950;-79
2022/05/28 04:04:42;;;;;;;;;;;;;;;11.74;56.30;100302.91;1088245;54;19943;-81
2022/05/28 04:05:43;;;;;;;;;;;;;;;11.78;55.54;100298.94;1091053;46;19946;-81
2022/05/28 04:06:47;;;;;;;;;;;;;;;11.77;55.78;100307.97;1088485;46;19931;-79
2022/05/28 04:07:54;;;;;;;;;;;;;;;11.71;56.26;100312.06;1088238;54;19927;-80
2022/05/28 04:09:00;;;;;;;;;;;;;;;11.36;57.11;100308.22;1088278;54;19943;-81
2022/05/28 04:10:02;;;;;;;;;;;;;;;11.32;57.42;100310.34;1088486;54;19950;-84
2022/05/28 04:11:10;;;;;;;;;;;;;;;11.31;56.97;100308.66;1092509;46;19927;-82
2022/05/28 04:12:12;;;;;;;;;;;;;;;11.24;57.58;100310.22;1088433;54;19942;-82
2022/05/28 04:13:16;;;;;;;;;;;;;;;11.14;57.92;100314.72;1088517;54;19927;-83
2022/05/28 04:14:17;;;;;;;;;;;;;;;11.13;58.07;100318.38;1088559;54;19946;-81
2022/05/28 04:15:36;;;;;;;;;;;;;;;11.20;57.45;100314.97;1088495;54;20672;-83
2022/05/28 04:16:37;;;;;;;;;;;;;;;11.32;57.23;100317.50;1088537;54;19944;-83
2022/05/28 04:17:43;;;;;;;;;;;;;;;11.30;57.18;100315.00;1088443;54;19927;-84
2022/05/28 04:18:44;;;;;;;;;;;;;;;11.27;57.18;100320.63;1088463;54;20622;-83
2022/05/28 04:19:55;;;;;;;;;;;;;;;11.16;57.71;100320.75;1088550;54;19998;-82
2022/05/28 04:20:58;;;;;;;;;;;;;;;11.05;57.90;100322.59;1088632;54;19943;-81
2022/05/28 04:22:02;;;;;;;;;;;;;;;11.02;58.10;100330.91;1088639;54;19934;-82
2022/05/28 04:23:05;;;;;;;;;;;;;;;11.05;58.11;100327.94;1088562;54;19931;-81
2022/05/28 04:24:15;;;;;;;;;;;;;;;10.96;58.28;100326.13;1088632;54;19927;-81
2022/05/28 04:25:17;;;;;;;;;;;;;;;10.93;58.40;100327.25;1099513;46;19930;-82
2022/05/28 04:26:21;;;;;;;;;;;;;;;10.98;58.51;100329.50;1088635;54;20007;-80
2022/05/28 04:27:22;;;;;;;;;;;;;;;11.04;58.47;100328.97;1088556;54;19927;-83
2022/05/28 04:41:31;;;;;;;;;;;;;;;10.90;58.41;100334.72;1087399;54;19938;-82
2022/05/28 04:44:04;;;;;;;;;;;;;;;10.90;58.53;100340.06;1088726;54;19918;-81
2022/05/28 04:47:48;;;;;;;;;;;;;;;10.98;58.46;100329.50;1101407;39;20888;-83
2022/05/28 04:48:52;;;;;;;;;;;;;;;10.90;58.53;100340.06;1088715;54;19918;-81
2022/05/28 04:50:05;;;;;;;;;;;;;;;10.93;58.40;100329.09;1090649;46;19929;-80
2022/05/28 04:56:57;;;;;;;;;;;;;;;11.20;58.08;100340.91;1089944;31;20763;-83
2022/05/28 04:58:01;;;;;;;;;;;;;;;11.11;57.80;100341.75;1088731;54;19930;-82
2022/05/28 04:59:11;;;;;;;;;;;;;;;10.91;58.15;100336.41;1089142;46;19926;-81
2022/05/28 05:15:37;;;;;;;;;;;;;;;11.43;56.91;100348.66;1088431;54;19935;-82
2022/05/28 05:16:40;;;;;;;;;;;;;;;11.40;57.35;100357.78;1088630;54;19929;-82
2022/05/28 05:21:15;;;;;;;;;;;;;;;11.80;56.42;100348.69;1087892;54;19937;-83
2022/05/28 05:22:16;;;;;;;;;;;;;;;11.62;56.89;100351.25;1088613;54;19965;-83
2022/05/28 05:23:20;;;;;;;;;;;;;;;11.59;57.16;100348.91;1088575;54;19933;-80
2022/05/28 05:24:44;;;;;;;;;;;;;;;11.65;57.12;100351.00;1088666;54;19930;-82
2022/05/28 05:25:48;;;;;;;;;;;;;;;11.84;56.26;100346.56;1093982;46;19939;-82
2022/05/28 05:27:19;;;;;;;;;;;;;;;11.85;56.46;100350.94;1093902;46;19931;-82
2022/05/28 05:28:22;;;;;;;;;;;;;;;11.76;56.70;100346.44;1095888;46;20106;-83
2022/05/28 05:29:29;;;;;;;;;;;;;;;11.86;56.54;100349.94;1088639;54;20605;-81
2022/05/28 05:42:25;;;;;;;;;;;;;;;11.89;57.09;100364.88;1088398;54;19942;-82
2022/05/28 05:53:58;;;;;;;;;;;;;;;12.35;55.32;100357.00;1087780;54;19930;-81
2022/05/28 05:55:00;;;;;;;;;;;;;;;12.43;55.28;100362.44;1088369;54;19950;-79
2022/05/28 05:56:10;;;;;;;;;;;;;;;12.50;55.19;100360.84;1088327;54;19933;-81
2022/05/28 05:57:12;;;;;;;;;;;;;;;12.42;55.02;100363.44;1088409;54;19934;-82
2022/05/28 05:58:18;;;;;;;;;;;;;;;12.50;55.15;100366.22;1088393;54;19927;-83
2022/05/28 05:59:20;;;;;;;;;;;;;;;12.51;54.93;100362.53;1088343;54;19949;-82
2022/05/28 06:00:25;;;;;;;;;;;;;;;12.58;54.88;100352.91;1087855;54;20038;-79
2022/05/28 06:01:28;;;;;;;;;;;;;;;12.62;54.82;100366.84;1088045;54;19951;-84
2022/05/28 06:02:32;;;;;;;;;;;;;;;12.68;54.91;100362.72;1088356;54;20611;-83
2022/05/28 06:03:34;;;;;;;;;;;;;;;12.62;54.96;100365.03;1088387;54;19950;-80
2022/05/28 06:05:01;;;;;;;;;;;;;;;12.42;54.90;100366.94;1088258;54;19955;-81
2022/05/28 06:06:04;;;;;;;;;;;;;;;12.24;55.06;100358.00;1088285;54;19942;-81
2022/05/28 06:07:25;;;;;;;;;;;;;;;12.40;54.77;100360.91;1088293;54;19954;-83
2022/05/28 06:08:27;;;;;;;;;;;;;;;12.29;55.28;100363.78;1088428;54;19939;-84
2022/05/28 06:09:31;;;;;;;;;;;;;;;12.24;55.46;100360.69;1090371;47;19923;-84
2022/05/28 06:10:33;;;;;;;;;;;;;;;12.32;55.48;100356.28;1088297;54;19935;-83
2022/05/28 06:11:37;;;;;;;;;;;;;;;12.28;55.61;100346.84;1088250;54;19935;-82
2022/05/28 06:12:38;;;;;;;;;;;;;;;12.29;55.40;100355.75;1094401;47;19935;-82
2022/05/28 06:13:58;;;;;;;;;;;;;;;12.40;55.04;100357.38;1088537;54;19946;-82
2022/05/28 06:15:08;;;;;;;;;;;;;;;12.29;55.36;100353.91;1088377;54;20575;-81
2022/05/28 06:19:37;;;;;;;;;;;;;;;12.67;54.99;100355.66;1087894;54;19941;-82
2022/05/28 06:20:38;;;;;;;;;;;;;;;12.76;54.76;100349.38;1088393;54;19927;-83
2022/05/28 06:21:42;;;;;;;;;;;;;;;12.84;54.57;100352.19;1088450;54;19934;-83
2022/05/28 06:22:44;;;;;;;;;;;;;;;12.79;54.49;100357.13;1088116;54;19994;-79
2022/05/28 06:23:48;;;;;;;;;;;;;;;12.88;54.74;100353.53;1088149;54;19935;-79
2022/05/28 06:24:49;;;;;;;;;;;;;;;12.97;54.19;100357.16;1088502;54;19944;-83
2022/05/28 06:25:59;;;;;;;;;;;;;;;12.94;54.18;100357.47;1088192;54;20539;-82
2022/05/28 06:27:04;;;;;;;;;;;;;;;12.98;53.92;100353.50;1088411;54;19927;-84
2022/05/28 06:28:12;;;;;;;;;;;;;;;12.98;53.55;100352.63;1088384;54;20039;-83
2022/05/28 06:40:58;;;;;;;;;;;;;;;13.38;52.29;100349.47;1088279;54;19939;-82
2022/05/28 06:41:59;;;;;;;;;;;;;;;13.48;51.62;100354.78;1088134;54;19951;-80
2022/05/28 06:43:03;;;;;;;;;;;;;;;13.57;51.66;100350.28;1091815;39;20532;-79
2022/05/28 06:44:06;;;;;;;;;;;;;;;13.63;51.18;100340.78;1087808;54;19943;-79
2022/05/28 06:45:14;;;;;;;;;;;;;;;13.71;51.25;100349.75;1088083;54;19950;-81
2022/05/28 06:46:18;;;;;;;;;;;;;;;13.68;50.32;100351.91;1088250;54;19943;-81
2022/05/28 06:47:19;;;;;;;;;;;;;;;13.51;49.73;100346.38;1088358;54;19950;-84
2022/05/28 06:48:23;;;;;;;;;;;;;;;13.48;50.04;100348.56;1088180;54;19943;-81
2022/05/28 06:49:27;;;;;;;;;;;;;;;13.45;49.78;100344.34;1088240;54;19939;-80
2022/05/28 06:51:47;;;;;;;;;;;;;;;13.90;49.79;100331.72;1088221;54;19934;-81
2022/05/28 06:52:49;;;;;;;;;;;;;;;14.01;49.37;100344.03;1088256;54;19943;-80
2022/05/28 06:53:53;;;;;;;;;;;;;;;14.13;49.06;100334.69;1088276;54;19926;-80
2022/05/28 06:54:55;;;;;;;;;;;;;;;14.09;48.07;100329.78;1088177;54;19927;-81
2022/05/28 06:56:02;;;;;;;;;;;;;;;14.16;47.97;100337.06;1088172;54;19943;-81
2022/05/28 06:57:07;;;;;;;;;;;;;;;14.23;47.71;100341.78;1088186;54;19990;-81
2022/05/28 07:02:44;;;;;;;;;;;;;;;14.76;46.70;100329.88;1088192;54;19939;-81
2022/05/28 07:03:48;;;;;;;;;;;;;;;14.85;46.72;100338.81;1088373;54;19973;-79
2022/05/28 07:04:52;;;;;;;;;;;;;;;14.61;46.22;100339.56;1106862;46;19942;-80
2022/05/28 07:05:54;;;;;;;;;;;;;;;14.43;46.16;100337.84;1088651;54;19935;-80
2022/05/28 07:06:58;;;;;;;;;;;;;;;14.33;46.12;100337.13;1097744;39;20764;-80
2022/05/28 07:08:00;;;;;;;;;;;;;;;14.40;46.19;100327.38;1088668;54;19949;-81
2022/05/28 07:09:19;;;;;;;;;;;;;;;14.41;46.75;100337.16;1097294;46;19945;-82
2022/05/28 07:22:12;;;;;;;;;;;;;;;14.96;44.63;100334.94;1088049;54;19943;-84
2022/05/28 07:24:33;;;;;;;;;;;;;;;14.97;45.11;100329.38;1088542;54;19934;-82
2022/05/28 07:28:24;;;;;;;;;;;;;;;15.03;44.66;100313.59;1088208;54;21159;-81
2022/05/28 07:32:01;;;;;;;;;;;;;;;15.34;44.33;100319.13;1088498;54;19947;-80
2022/05/28 07:33:03;;;;;;;;;;;;;;;15.47;43.90;100309.69;1088556;54;20582;-82
2022/05/28 07:34:09;;;;;;;;;;;;;;;15.23;44.10;100311.38;1088569;54;20035;-81
2022/05/28 07:35:11;;;;;;;;;;;;;;;15.13;44.36;100312.41;1088666;54;19972;-82
2022/05/28 07:37:27;;;;;;;;;;;;;;;15.59;43.87;100316.41;1088079;54;19942;-82
2022/05/28 07:38:43;;;;;;;;;;;;;;;;;;;;;
2022/05/28 07:39:54;;;;;;;;;;;;;;;16.05;42.87;100296.94;1088424;54;19938;-82
2022/05/28 07:41:11;;;;;;;;;;;;;;;16.25;42.74;100300.03;1088369;54;19927;-86
2022/05/28 08:08:08;;;;;;;;;;;;;;;16.51;41.60;100280.84;1079295;54;20803;-84
2022/05/28 08:09:18;;;;;;;;;;;;;;;16.67;41.02;100281.78;1088100;54;19942;-82
2022/05/28 08:10:24;;;;;;;;;;;;;;;17.06;40.83;100283.53;1087743;54;20011;-83
2022/05/28 08:11:26;;;;;;;;;;;;;;;17.17;40.66;100281.41;1088112;54;19927;-84
2022/05/28 08:12:29;;;;;;;;;;;;;;;16.79;40.76;100279.50;1088293;54;19934;-83
2022/05/28 08:16:52;;;;;;;;;;;;;;;17.26;40.51;100281.19;1088068;54;20003;-85
2022/05/28 08:26:49;;;;;;;;;;;;;;;17.78;39.04;100273.19;1088139;54;20701;-84
2022/05/28 08:27:51;;;;;;;;;;;;;;;17.73;39.20;100270.22;1088126;54;19939;-81
2022/05/28 08:28:56;;;;;;;;;;;;;;;17.66;38.71;100269.31;1088283;54;19949;-82
2022/05/28 08:30:26;;;;;;;;;;;;;;;17.33;39.42;100275.03;1088269;54;19955;-84
2022/05/28 08:31:32;;;;;;;;;;;;;;;17.22;39.40;100274.44;1088213;54;19954;-87
2022/05/28 08:32:43;;;;;;;;;;;;;;;17.10;39.93;100271.34;1088140;54;19943;-83
2022/05/28 08:38:46;;;;;;;;;;;;;;;16.51;40.92;100275.47;1087071;46;19946;31
2022/05/28 08:39:48;;;;;;;;;;;;;;;16.47;40.68;100276.84;1088173;54;19943;-83
2022/05/28 08:40:54;;;;;;;;;;;;;;;16.63;40.83;100273.19;1088340;54;20281;-84
2022/05/28 08:41:58;;;;;;;;;;;;;;;16.52;41.01;100271.75;1088430;54;19942;-83
2022/05/28 08:44:19;;;;;;;;;;;;;;;16.71;40.80;100271.47;1088450;54;19957;-82
2022/05/28 08:49:35;;;;;;;;;;;;;;;17.51;39.63;100262.00;1085882;46;20208;31
2022/05/28 08:51:59;;;;;;;;;;;;;;;17.54;39.23;100264.34;1091720;39;20149;-87
2022/05/28 08:55:14;;;;;;;;;;;;;;;17.55;39.60;100260.63;1087393;54;19962;-81
2022/05/28 08:56:29;;;;;;;;;;;;;;;17.41;39.58;100256.88;1087586;54;19975;-86
2022/05/28 08:57:37;;;;;;;;;;;;;;;17.56;39.51;100253.34;1087812;54;19951;-84
2022/05/28 08:58:41;;;;;;;;;;;;;;;17.51;39.59;100262.00;1088182;54;19961;-84
2022/05/28 08:59:46;;;;;;;;;;;;;;;17.46;39.83;100264.44;1088206;54;19950;-85
2022/05/28 09:00:54;;;;;;;;;;;;;;;17.34;40.09;100261.31;1088224;54;19942;-85
2022/05/28 09:01:56;;;;;;;;;;;;;;;17.28;39.83;100252.13;1089196;46;19950;-80
2022/05/28 09:03:04;;;;;;;;;;;;;;;17.11;39.77;100255.97;1088162;54;20043;-82
2022/05/28 09:04:07;;;;;;;;;;;;;;;17.18;40.01;100253.38;1089026;39;20435;-82
2022/05/28 09:05:19;;;;;;;;;;;;;;;17.18;39.87;100256.09;1088600;46;19954;-83
2022/05/28 09:06:26;;;;;;;;;;;;;;;17.29;39.59;100245.66;1087955;54;19942;-79
2022/05/28 09:07:28;;;;;;;;;;;;;;;17.40;39.52;100252.50;1088153;54;19942;-85
2022/05/28 09:30:14;;;;;;;;;;;;;;;17.10;40.72;100249.75;1088059;54;19923;-82
2022/05/28 09:31:23;;;;;;;;;;;;;;;17.27;40.09;100242.34;1090539;39;20648;-82
2022/05/28 09:32:32;;;;;;;;;;;;;;;17.50;39.43;100238.72;1088014;54;19955;-84
2022/05/28 09:36:52;;;;;;;;;;;;;;;17.72;39.09;100242.34;1088055;54;19943;-84
2022/05/28 09:37:56;;;;;;;;;;;;;;;17.82;38.37;100235.81;1090755;46;19943;-85
2022/05/28 09:39:04;;;;;;;;;;;;;;;17.61;37.58;100230.16;1088246;54;19934;-84
2022/05/28 09:40:10;;;;;;;;;;;;;;;17.53;38.41;100238.34;1088322;54;19927;-84
2022/05/28 09:41:27;;;;;;;;;;;;;;;17.51;38.78;100239.56;1088300;54;19943;-85
2022/05/28 09:43:47;;;;;;;;;;;;;;;17.72;38.56;100231.53;1088301;54;19927;-84
2022/05/28 09:44:59;;;;;;;;;;;;;;;17.74;38.39;100239.47;1088345;54;19927;-84
2022/05/28 09:46:10;;;;;;;;;;;;;;;17.61;38.41;100238.25;1088358;54;19938;-83
2022/05/28 09:47:16;;;;;;;;;;;;;;;17.33;39.13;100231.81;1090221;46;19951;-85
2022/05/28 09:48:19;;;;;;;;;;;;;;;17.78;38.79;100229.94;1088339;54;19934;-83
2022/05/28 09:49:24;;;;;;;;;;;;;;;18.14;38.09;100223.75;1089365;39;20297;-85
2022/05/28 09:50:27;;;;;;;;;;;;;;;18.42;37.24;100227.59;1088263;54;19958;-84
2022/05/28 09:51:32;;;;;;;;;;;;;;;18.48;37.01;100216.00;1088119;54;19927;-84
2022/05/28 09:52:34;;;;;;;;;;;;;;;17.93;37.75;100222.66;1088132;54;19943;-86
2022/05/28 09:55:12;;;;;;;;;;;;;;;17.79;37.79;100220.81;1087816;54;20014;-86
2022/05/28 09:57:24;;;;;;;;;;;;;;;17.67;38.01;100225.84;1088394;54;19927;-81
2022/05/28 09:58:27;;;;;;;;;;;;;;;17.75;37.83;100222.22;1088398;54;20002;-86
2022/05/28 10:00:35;;;;;;;;;;;;;;;18.01;37.64;100218.22;1088648;54;19990;-86
2022/05/28 10:04:28;;;;;;;;;;;;;;;17.58;37.55;100224.28;1088612;54;19950;-83
2022/05/28 10:06:33;;;;;;;;;;;;;;;17.86;36.69;100215.50;1088026;54;19949;-83
2022/05/28 10:09:57;;;;;;;;;;;;;;;17.61;37.67;100208.53;1088032;54;20011;-86
2022/05/28 10:11:00;;;;;;;;;;;;;;;17.49;37.82;100210.00;1087742;54;19934;-84
2022/05/28 10:13:09;;;;;;;;;;;;;;;17.78;37.42;100202.91;1091155;39;20576;-86
2022/05/28 10:16:38;;;;;;;;;;;;;;;17.84;36.42;100204.88;1088122;54;20908;-83
2022/05/28 10:19:02;;;;;;;;;;;;;;;17.77;35.50;100201.22;1087777;54;19990;-83
2022/05/28 10:20:07;;;;;;;;;;;;;;;18.04;35.58;100191.63;1088118;54;19926;-83
2022/05/28 10:21:10;;;;;;;;;;;;;;;17.99;35.94;100194.06;1088211;54;19939;-84
2022/05/28 10:22:15;;;;;;;;;;;;;;;18.12;35.59;100187.13;1088197;54;19927;-83
2022/05/28 10:23:21;;;;;;;;;;;;;;;18.15;35.90;100187.56;1092097;39;20543;-84
2022/05/28 10:24:25;;;;;;;;;;;;;;;18.29;35.41;100191.25;1087897;54;19942;-85
2022/05/28 10:25:34;;;;;;;;;;;;;;;18.27;35.77;100190.63;1088061;54;19967;-84
2022/05/28 10:26:39;;;;;;;;;;;;;;;18.19;36.18;100183.47;1088207;54;19955;-85
2022/05/28 10:27:50;;;;;;;;;;;;;;;18.37;35.73;100191.13;1088279;54;19987;-87
2022/05/28 10:28:53;;;;;;;;;;;;;;;18.42;35.92;100187.84;1088226;54;19942;-87
2022/05/28 10:29:58;;;;;;;;;;;;;;;18.55;35.92;100182.56;1088183;54;19955;-83
2022/05/28 10:30:59;;;;;;;;;;;;;;;18.47;34.88;100185.41;1088202;54;19942;-85
2022/05/28 10:32:04;;;;;;;;;;;;;;;18.54;35.61;100175.47;1088205;54;19946;-84
2022/05/28 10:33:10;;;;;;;;;;;;;;;18.55;35.28;100187.16;1089560;47;19930;-84
2022/05/28 10:34:25;;;;;;;;;;;;;;;18.84;34.70;100175.31;1088283;54;19950;-84
2022/05/28 10:35:31;;;;;;;;;;;;;;;18.68;33.96;100178.31;1088317;54;19931;-84
2022/05/28 10:37:41;;;;;;;;;;;;;;;18.80;33.51;100182.16;1075055;39;20270;31
2022/05/28 10:39:48;;;;;;;;;;;;;;;18.76;33.65;100177.31;1088417;54;20022;-83
2022/05/28 10:45:09;;;;;;;;;;;;;;;19.42;32.23;100168.00;1088707;54;19986;-83
2022/05/28 10:46:17;;;;;;;;;;;;;;;19.29;32.41;100160.63;1089032;46;19943;-82
2022/05/28 10:48:32;;;;;;;;;;;;;;;19.37;32.21;100162.38;1088569;54;19945;-84
2022/05/28 10:49:40;;;;;;;;;;;;;;;19.40;32.42;100170.94;1088574;54;19963;-83
2022/05/28 10:50:51;;;;;;;;;;;;;;;19.63;32.04;100164.38;1088378;54;20642;-80
2022/05/28 10:51:56;;;;;;;;;;;;;;;19.66;31.99;100171.28;1089063;46;19954;-81
2022/05/28 10:53:08;;;;;;;;;;;;;;;19.61;32.41;100164.56;1088341;54;20004;-79
2022/05/28 10:54:21;;;;;;;;;;;;;;;19.64;32.42;100168.78;1088458;54;19951;-82
2022/05/28 10:55:29;;;;;;;;;;;;;;;19.64;32.32;100164.16;1088461;54;20032;-82
2022/05/28 10:56:43;;;;;;;;;;;;;;;19.64;32.58;100158.75;1088412;54;19943;-83
2022/05/28 10:57:57;;;;;;;;;;;;;;;19.44;32.74;100161.38;1089027;39;20581;-82
2022/05/28 10:59:06;;;;;;;;;;;;;;;19.32;33.10;100160.25;1088465;46;19943;-83
2022/05/28 11:00:11;;;;;;;;;;;;;;;19.46;33.28;100161.97;1088433;54;19943;-84
2022/05/28 11:01:24;;;;;;;;;;;;;;;19.43;33.20;100156.97;1088490;54;19939;-82
2022/05/28 11:02:38;;;;;;;;;;;;;;;19.56;32.85;100160.78;1088399;54;19924;-81
2022/05/28 11:03:54;;;;;;;;;;;;;;;19.64;33.12;100163.34;1088550;54;19958;-86
2022/05/28 11:05:01;;;;;;;;;;;;;;;19.72;32.82;100162.31;1088472;54;19937;-84
2022/05/28 11:06:20;;;;;;;;;;;;;;;19.70;32.89;100167.09;1088512;54;19961;-83
2022/05/28 11:07:40;;;;;;;;;;;;;;;19.47;32.01;100152.81;1088061;54;19942;-85
2022/05/28 11:08:48;;;;;;;;;;;;;;;19.71;32.15;100158.78;1088560;54;19938;-86
2022/05/28 11:10:03;;;;;;;;;;;;;;;19.77;32.08;100163.38;1089085;46;19943;-83
2022/05/28 11:13:22;;;;;;;;;;;;;;;19.39;32.46;100153.00;1088538;54;19962;-84
2022/05/28 11:14:34;;;;;;;;;;;;;;;19.35;33.10;100149.03;1088181;47;19942;-84